Time;durP1;ratioP1;P1;durP2;ratioP2;P2;SDS_P1;SDS_P2;PMS_P1;PMS_P2;Temp;Humidity;BMP_temperature;BMP_pressure;BME280_temperature;BME280_humidity;BME280_pressure;Samples;Min_cycle;Max_cycle;Signal;HPM_P1;HPM_P2
2021/01/10 00:01:13;;;;;;;1.92;1.38;;;;;;;1.10;79.40;93442.78;5091927;28;20412;-42
2021/01/10 00:03:38;;;;;;;2.58;1.50;;;;;;;1.28;79.02;93445.06;5091913;28;20036;-45
2021/01/10 00:06:04;;;;;;;2.05;1.50;;;;;;;1.47;78.14;93437.94;5091832;28;20032;-45
2021/01/10 00:08:29;;;;;;;1.98;1.42;;;;;;;1.59;78.36;93438.72;5091930;28;20028;-42
2021/01/10 00:10:55;;;;;;;3.35;2.25;;;;;;;1.62;77.95;93450.63;5091547;28;20105;-42
2021/01/10 00:13:20;;;;;;;1.85;1.73;;;;;;;1.59;77.21;93448.88;5091647;28;20028;-43
2021/01/10 00:15:46;;;;;;;3.22;2.92;;;;;;;1.64;77.13;93451.63;5091630;28;20024;-42
2021/01/10 00:18:11;;;;;;;1.55;1.45;;;;;;;1.38;78.30;93449.06;5091643;28;20035;-43
2021/01/10 00:20:38;;;;;;;1.30;1.17;;;;;;;1.55;78.33;93446.41;5091756;28;20038;-42
2021/01/10 00:23:03;;;;;;;2.10;1.30;;;;;;;1.56;78.74;93444.44;5091492;28;20107;-42
2021/01/10 00:25:29;;;;;;;1.10;0.85;;;;;;;1.65;77.84;93452.34;5091778;28;20161;-42
2021/01/10 00:27:54;;;;;;;1.67;1.15;;;;;;;1.67;78.06;93445.19;5091504;28;20027;-43
2021/01/10 00:30:21;;;;;;;1.05;0.95;;;;;;;1.57;78.39;93429.56;5091373;28;20031;-43
2021/01/10 00:32:53;;;;;;;2.28;1.83;;;;;;;1.61;78.54;93452.59;5091837;28;20053;-47
2021/01/10 00:35:19;;;;;;;5.40;3.55;;;;;;;1.82;77.96;93450.44;5099554;28;20038;-47
2021/01/10 00:37:52;;;;;;;2.95;2.65;;;;;;;1.79;77.41;93451.41;5099942;28;20035;-45
2021/01/10 00:40:19;;;;;;;3.20;2.30;;;;;;;1.71;77.78;93451.13;5111521;28;20469;-44
2021/01/10 00:42:45;;;;;;;3.63;2.50;;;;;;;1.86;77.34;93440.78;5111076;28;20030;-43
2021/01/10 00:45:12;;;;;;;4.43;3.58;;;;;;;1.85;77.16;93452.16;5111581;28;20042;-43
2021/01/10 00:47:38;;;;;;;4.05;2.95;;;;;;;1.84;77.27;93456.84;5111475;28;20036;-43
2021/01/10 00:50:05;;;;;;;2.40;1.98;;;;;;;1.83;77.63;93458.09;5111444;28;20507;-43
2021/01/10 00:52:30;;;;;;;2.88;2.17;;;;;;;1.80;77.11;93466.50;5111343;28;20106;-42
2021/01/10 00:54:56;;;;;;;3.95;2.35;;;;;;;1.73;77.69;93475.16;5111347;28;20111;-45
2021/01/10 00:57:21;;;;;;;2.97;2.42;;;;;;;1.64;77.12;93478.09;5111319;28;20026;-43
2021/01/10 00:59:47;;;;;;;2.97;1.98;;;;;;;1.58;77.65;93469.91;5111291;28;20028;-42
2021/01/10 01:02:13;;;;;;;4.63;1.73;;;;;;;1.56;78.12;93468.91;5111249;28;20499;-41
2021/01/10 01:04:38;;;;;;;2.22;1.50;;;;;;;1.49;78.49;93476.28;5111232;28;20397;-45
2021/01/10 01:07:04;;;;;;;5.05;2.65;;;;;;;1.55;78.15;93481.78;5111035;28;20027;-44
2021/01/10 01:09:29;;;;;;;5.18;2.90;;;;;;;1.64;78.11;93486.25;5111294;28;20023;-44
2021/01/10 01:11:54;;;;;;;5.38;3.03;;;;;;;1.72;78.02;93474.41;5110921;28;20444;-43
2021/01/10 01:14:20;;;;;;;2.40;1.60;;;;;;;1.72;77.68;93473.66;5111251;28;20027;-44
2021/01/10 01:16:45;;;;;;;2.38;1.95;;;;;;;1.63;77.39;93487.47;5111310;28;20071;-43
2021/01/10 01:19:11;;;;;;;2.03;1.23;;;;;;;1.67;77.67;93482.56;5111017;28;20028;-43
2021/01/10 01:21:36;;;;;;;1.13;0.80;;;;;;;1.69;77.84;93480.81;5111003;28;20028;-42
2021/01/10 01:24:02;;;;;;;3.17;1.45;;;;;;;1.59;77.10;93476.09;5110995;28;20053;-45
2021/01/10 01:26:28;;;;;;;3.05;1.90;;;;;;;1.72;77.19;93460.78;5110448;28;20024;-43
2021/01/10 01:28:53;;;;;;;4.65;2.92;;;;;;;1.80;76.89;93458.34;5110964;28;20027;-43
2021/01/10 01:31:24;;;;;;;2.15;1.77;;;;;;;1.86;76.02;93465.28;5110873;28;20035;-42
2021/01/10 01:33:51;;;;;;;4.25;2.17;;;;;;;1.86;76.19;93456.38;5110974;28;20034;-42
2021/01/10 01:36:24;;;;;;;6.32;1.85;;;;;;;1.90;75.50;93456.88;5110815;28;20106;-42
2021/01/10 01:38:54;;;;;;;1.95;1.13;;;;;;;1.93;76.12;93455.88;5110946;28;20032;-43
2021/01/10 01:41:20;;;;;;;2.70;1.65;;;;;;;1.82;76.25;93462.03;5110830;28;20412;-43
2021/01/10 01:43:45;;;;;;;3.47;2.28;;;;;;;1.81;76.90;93455.13;5110837;28;20024;-43
2021/01/10 01:46:12;;;;;;;8.27;4.60;;;;;;;1.84;76.58;93454.13;5111018;28;20538;-43
2021/01/10 01:48:39;;;;;;;4.72;3.05;;;;;;;1.83;75.92;93460.81;5109485;28;20069;-44
2021/01/10 01:51:05;;;;;;;5.35;3.10;;;;;;;1.70;76.54;93438.75;5108846;28;20023;-43
2021/01/10 01:53:30;;;;;;;4.53;2.50;;;;;;;1.79;77.43;93445.97;5110659;28;20035;-44
2021/01/10 01:55:57;;;;;;;3.70;2.15;;;;;;;1.77;77.55;93434.81;5110587;28;20039;-45
2021/01/10 01:58:24;;;;;;;94.20;42.83;;;;;;;1.76;77.35;93444.97;5110703;28;20048;-44
2021/01/10 02:00:50;;;;;;;92.75;37.95;;;;;;;1.85;76.69;93439.28;5110586;28;20015;-43
2021/01/10 02:03:25;;;;;;;22.00;10.80;;;;;;;1.91;76.31;93442.75;5110560;28;20057;-43
2021/01/10 02:05:52;;;;;;;8.43;5.28;;;;;;;1.85;76.71;93446.69;5109423;28;20028;-43
2021/01/10 02:08:18;;;;;;;53.03;20.85;;;;;;;1.67;77.29;93439.00;5109430;28;20110;-44
2021/01/10 02:10:43;;;;;;;52.97;21.42;;;;;;;1.70;77.52;93446.19;5109099;28;20119;-44
2021/01/10 02:13:14;;;;;;;24.35;12.00;;;;;;;1.62;78.00;93443.22;5109221;28;20476;-44
2021/01/10 02:15:41;;;;;;;9.90;5.80;;;;;;;1.62;77.93;93428.84;5110607;28;20131;-44
2021/01/10 02:18:08;;;;;;;8.02;4.40;;;;;;;1.48;78.36;93425.84;5110385;28;20030;-45
2021/01/10 02:20:37;;;;;;;5.93;3.10;;;;;;;1.69;78.15;93431.09;5109434;28;20098;-43
2021/01/10 02:23:09;;;;;;;4.90;3.65;;;;;;;1.71;77.60;93439.50;5110499;28;20415;-43
2021/01/10 02:25:36;;;;;;;48.35;15.95;;;;;;;1.75;77.30;93457.09;5109147;28;20096;-45
2021/01/10 02:28:04;;;;;;;15.70;7.82;;;;;;;1.65;78.00;93453.09;5110408;28;20039;-42
2021/01/10 02:30:31;;;;;;;7.18;5.10;;;;;;;1.59;78.49;93462.47;5109158;28;20035;-42
2021/01/10 02:33:04;;;;;;;6.45;4.40;;;;;;;1.48;78.83;93447.63;5110505;28;20031;-42
2021/01/10 02:35:31;;;;;;;9.60;4.95;;;;;;;1.46;79.51;93452.81;5109114;28;20020;-43
2021/01/10 02:38:26;;;;;;;12.13;6.03;;;;;;;1.35;79.10;93452.00;5110486;28;20062;-44
2021/01/10 02:41:15;;;;;;;10.95;5.82;;;;;;;1.37;79.80;93447.56;5111535;28;20047;-45
2021/01/10 02:43:52;;;;;;;5.75;3.70;;;;;;;1.27;80.67;93437.41;5113859;28;20055;-44
2021/01/10 02:46:18;;;;;;;2.30;1.83;;;;;;;1.39;81.12;93439.66;5112573;28;20119;-43
2021/01/10 02:48:44;;;;;;;1.23;1.00;;;;;;;1.46;80.63;93446.63;5113827;28;20180;-43
2021/01/10 02:51:09;;;;;;;1.55;0.75;;;;;;;1.45;80.99;93459.47;5112624;28;20527;-45
2021/01/10 02:53:35;;;;;;;2.03;1.67;;;;;;;1.57;81.01;93467.66;5113721;28;20107;-42
2021/01/10 02:56:02;;;;;;;1.08;0.90;;;;;;;1.56;80.40;93472.34;5113188;28;20043;-44
2021/01/10 02:58:27;;;;;;;0.63;0.52;;;;;;;1.61;80.02;93479.81;5111837;28;20032;-44
2021/01/10 03:00:55;;;;;;;1.52;1.40;;;;;;;1.35;80.95;93447.31;5113498;28;20484;-42
2021/01/10 03:03:21;;;;;;;1.10;1.00;;;;;;;1.63;80.83;93460.25;5112230;28;20028;-44
2021/01/10 03:05:48;;;;;;;3.10;2.08;;;;;;;1.64;80.86;93467.19;5112282;28;20034;-42
2021/01/10 03:08:14;;;;;;;1.13;0.90;;;;;;;1.70;80.08;93465.97;5113423;28;20039;-42
2021/01/10 03:10:40;;;;;;;0.57;0.50;;;;;;;1.59;79.92;93476.09;5112001;28;20044;-44
2021/01/10 03:13:05;;;;;;;5.88;3.42;;;;;;;1.63;79.56;93493.66;5112125;28;20030;-41
2021/01/10 03:15:32;;;;;;;9.70;5.97;;;;;;;1.49;80.90;93497.34;5113275;28;20075;-43
2021/01/10 03:18:08;;;;;;;2.30;1.83;;;;;;;1.66;80.49;93498.13;5112037;28;20450;-45
2021/01/10 03:20:34;;;;;;;1.45;1.15;;;;;;;1.64;80.62;93488.97;5112076;28;20028;-42
2021/01/10 03:22:59;;;;;;;1.92;0.90;;;;;;;1.75;80.76;93489.00;5113113;28;20024;-42
2021/01/10 03:25:24;;;;;;;0.82;0.77;;;;;;;1.72;79.72;93476.38;5112938;28;20030;-43
2021/01/10 03:27:50;;;;;;;0.73;0.70;;;;;;;1.81;79.89;93484.31;5113157;28;20538;-48
2021/01/10 03:30:17;;;;;;;0.45;0.45;;;;;;;1.90;79.57;93475.91;5112936;28;20078;-43
2021/01/10 03:32:44;;;;;;;1.65;0.30;;;;;;;1.69;79.19;93496.41;5113036;28;20039;-42
2021/01/10 03:35:12;;;;;;;0.45;0.45;;;;;;;1.56;79.64;93487.97;5112835;28;20412;-43
2021/01/10 03:37:38;;;;;;;0.85;0.60;;;;;;;1.70;79.94;93497.88;5113062;28;20102;-44
2021/01/10 03:40:04;;;;;;;0.40;0.40;;;;;;;1.67;79.27;93496.16;5112957;28;20110;-46
2021/01/10 03:42:29;;;;;;;0.45;0.45;;;;;;;1.61;79.62;93482.53;5103822;28;20031;-46
2021/01/10 03:44:55;;;;;;;6.18;3.10;;;;;;;1.56;80.02;93479.78;5102467;28;20031;-43
2021/01/10 03:47:20;;;;;;;5.65;1.48;;;;;;;1.41;80.49;93478.00;5100335;28;20028;-41
2021/01/10 03:49:46;;;;;;;1.88;1.20;;;;;;;1.56;81.13;93477.06;5091819;28;20124;-44
2021/01/10 03:52:11;;;;;;;2.88;1.85;;;;;;;1.73;80.30;93480.59;5092198;28;20606;-44
2021/01/10 03:54:36;;;;;;;1.17;1.00;;;;;;;1.63;79.56;93479.31;5092134;28;20024;-44
2021/01/10 03:57:02;;;;;;;2.42;1.90;;;;;;;1.52;80.11;93488.19;5092110;28;20028;-45
2021/01/10 03:59:27;;;;;;;1.13;1.02;;;;;;;1.57;80.53;93498.34;5092041;28;20082;-43
2021/01/10 04:01:53;;;;;;;0.52;0.52;;;;;;;1.66;80.28;93481.06;5091931;28;20069;-44
2021/01/10 04:04:18;;;;;;;1.13;0.90;;;;;;;1.78;79.31;93479.84;5091805;28;20141;-44
2021/01/10 04:06:44;;;;;;;0.93;0.80;;;;;;;1.81;79.00;93482.34;5091812;28;20028;-46
2021/01/10 04:09:09;;;;;;;9.38;3.08;;;;;;;1.84;79.30;93480.63;5091873;28;20403;-44
2021/01/10 04:11:34;;;;;;;5.00;2.40;;;;;;;1.83;79.31;93468.22;5091749;28;20045;-44
2021/01/10 04:14:00;;;;;;;8.18;3.08;;;;;;;1.65;79.45;93463.97;5091815;28;20496;-44
2021/01/10 04:16:25;;;;;;;25.35;7.65;;;;;;;1.77;80.47;93467.47;5091744;28;20042;-47
2021/01/10 04:18:51;;;;;;;7.70;3.42;;;;;;;1.83;80.35;93468.97;5091779;28;20023;-45
2021/01/10 04:21:16;;;;;;;9.48;4.35;;;;;;;1.97;79.78;93475.44;5091564;28;20064;-45
2021/01/10 04:23:42;;;;;;;8.02;4.20;;;;;;;2.11;79.04;93471.75;5091605;28;20068;-47
2021/01/10 04:26:07;;;;;;;8.23;3.92;;;;;;;2.09;79.44;93477.69;5091553;28;20024;-45
2021/01/10 04:28:33;;;;;;;4.47;2.50;;;;;;;1.92;80.01;93490.53;5091705;28;20016;-46
2021/01/10 04:31:02;;;;;;;6.25;2.85;;;;;;;1.79;80.35;93479.38;5091349;28;20492;-44
2021/01/10 04:33:27;;;;;;;;;;;;;;;1.82;80.25;93478.38;5091772;28;20488;-46
2021/01/10 04:35:53;;;;;;;1.02;0.77;;;;;;;1.84;79.62;93491.50;5091371;28;19915;-46
2021/01/10 04:38:19;;;;;;;3.47;1.73;;;;;;;1.83;78.41;93487.28;5091242;28;20020;-47
2021/01/10 04:40:45;;;;;;;2.72;1.55;;;;;;;1.79;79.11;93481.34;5091393;28;20030;-46
2021/01/10 04:43:10;;;;;;;0.77;0.50;;;;;;;1.71;79.39;93472.91;5091135;28;20032;-47
2021/01/10 04:45:37;;;;;;;0.65;0.40;;;;;;;1.68;79.89;93498.38;5091190;28;20032;-46
2021/01/10 04:48:04;;;;;;;0.60;0.60;;;;;;;1.75;79.63;93502.63;5091130;28;20026;-47
2021/01/10 04:50:33;;;;;;;0.47;0.47;;;;;;;1.72;79.09;93488.00;5091158;28;20098;-45
2021/01/10 04:52:59;;;;;;;1.08;0.77;;;;;;;1.67;79.42;93477.84;5091199;28;20095;-44
2021/01/10 04:55:27;;;;;;;2.17;1.77;;;;;;;1.80;79.30;93485.56;5089934;28;20028;-49
2021/01/10 04:58:01;;;;;;;1.73;1.40;;;;;;;1.67;79.75;93490.72;5089871;28;20016;-48
2021/01/10 05:00:27;;;;;;;4.07;2.22;;;;;;;1.70;79.65;93506.81;5090265;28;20016;-45
2021/01/10 05:02:54;;;;;;;5.82;2.75;;;;;;;1.73;79.84;93505.09;5090922;28;20078;-48
2021/01/10 05:05:21;;;;;;;6.55;3.67;;;;;;;1.74;79.87;93510.03;5090896;28;20016;-44
2021/01/10 05:07:47;;;;;;;1.52;1.30;;;;;;;1.77;79.79;93497.41;5089800;28;20123;-44
2021/01/10 05:10:13;;;;;;;0.77;0.55;;;;;;;1.77;79.12;93502.88;5091202;28;20127;-45
2021/01/10 05:12:38;;;;;;;2.05;1.48;;;;;;;1.67;79.55;93505.03;5111267;28;20027;-43
2021/01/10 05:15:04;;;;;;;0.88;0.82;;;;;;;1.76;78.83;93485.03;5111105;28;20020;-43
2021/01/10 05:17:32;;;;;;;0.90;0.80;;;;;;;1.66;79.01;93483.78;5110998;28;20508;-45
2021/01/10 05:19:57;;;;;;;0.40;0.40;;;;;;;1.62;79.08;93494.91;5111106;28;20096;-45
2021/01/10 05:22:23;;;;;;;0.85;0.70;;;;;;;1.52;79.97;93499.06;5111017;28;20023;-45
2021/01/10 05:24:48;;;;;;;0.70;0.70;;;;;;;1.52;79.95;93485.47;5111040;28;20031;-44
2021/01/10 05:27:14;;;;;;;0.50;0.50;;;;;;;1.62;79.77;93492.19;5111023;28;20027;-45
2021/01/10 05:29:48;;;;;;;0.45;0.45;;;;;;;1.57;79.30;93501.06;5110907;28;20027;-45
2021/01/10 05:32:13;;;;;;;0.50;0.50;;;;;;;1.61;79.44;93500.81;5109704;28;20027;-44
2021/01/10 05:34:39;;;;;;;0.77;0.50;;;;;;;1.59;80.12;93514.16;5110931;28;20488;-44
2021/01/10 05:37:14;;;;;;;1.17;0.80;;;;;;;1.52;80.11;93501.78;5111097;28;20027;-42
2021/01/10 05:39:44;;;;;;;1.25;0.70;;;;;;;1.71;80.43;93510.28;5110985;28;20054;-42
2021/01/10 05:42:11;;;;;;;0.88;0.75;;;;;;;1.74;80.00;93507.31;5110950;28;20024;-43
2021/01/10 05:44:39;;;;;;;2.30;1.70;;;;;;;1.73;80.15;93511.28;5107885;28;20031;-43
2021/01/10 05:47:07;;;;;;;1.25;0.90;;;;;;;1.81;79.40;93516.97;5110435;28;20528;-44
2021/01/10 05:49:32;;;;;;;0.75;0.68;;;;;;;1.51;79.35;93520.09;5110502;28;20462;-43
2021/01/10 05:52:08;;;;;;;1.27;1.13;;;;;;;1.53;80.15;93523.06;5110355;28;20016;-42
2021/01/10 05:54:37;;;;;;;1.23;1.00;;;;;;;1.64;79.91;93524.34;5109087;28;20466;-44
2021/01/10 05:57:04;;;;;;;0.95;0.93;;;;;;;1.65;80.18;93528.53;5110290;28;20465;-44
2021/01/10 05:59:32;;;;;;;0.85;0.85;;;;;;;1.83;78.75;93530.84;5110466;28;20016;-45
2021/01/10 06:01:58;;;;;;;1.10;1.00;;;;;;;1.80;78.29;93520.94;5107433;28;20042;-43
2021/01/10 06:04:24;;;;;;;1.27;1.02;;;;;;;1.78;78.98;93515.22;5109140;28;20027;-43
2021/01/10 06:06:49;;;;;;;1.42;1.23;;;;;;;1.76;79.30;93523.13;5110266;28;20491;-42
2021/01/10 06:09:14;;;;;;;0.63;0.63;;;;;;;1.75;79.14;93524.38;5110176;28;20031;-43
2021/01/10 06:11:41;;;;;;;0.80;0.60;;;;;;;1.70;78.77;93514.22;5105669;28;20047;-43
2021/01/10 06:14:07;;;;;;;3.78;1.95;;;;;;;1.71;79.22;93535.50;5114348;28;20028;-44
2021/01/10 06:16:37;;;;;;;1.00;0.90;;;;;;;1.78;79.30;93542.44;5114473;28;20027;-42
2021/01/10 06:19:03;;;;;;;2.70;1.98;;;;;;;1.86;79.65;93543.47;5114518;28;20505;-43
2021/01/10 06:21:30;;;;;;;12.63;4.50;;;;;;;1.74;79.12;93539.22;5114258;28;20106;-44
2021/01/10 06:23:58;;;;;;;1.70;1.58;;;;;;;1.74;78.90;93539.22;5114331;28;20024;-47
2021/01/10 06:26:25;;;;;;;1.30;0.90;;;;;;;1.64;79.49;93541.41;5113149;28;20025;-50
2021/01/10 06:28:58;;;;;;;1.10;1.00;;;;;;;1.62;79.65;93534.97;5113818;28;20048;-45
2021/01/10 06:31:26;;;;;;;3.88;2.30;;;;;;;1.71;80.76;93542.94;5114189;28;20515;-46
2021/01/10 06:33:56;;;;;;;3.35;2.50;;;;;;;1.78;80.19;93545.91;5114240;28;20046;-44
2021/01/10 06:36:23;;;;;;;13.52;6.13;;;;;;;1.91;80.03;93543.47;5114273;28;20100;-44
2021/01/10 06:38:52;;;;;;;11.57;4.90;;;;;;;1.87;80.00;93536.78;5114098;28;20384;-43
2021/01/10 06:41:35;;;;;;;13.10;6.53;;;;;;;1.98;80.35;93545.00;5114015;28;20401;-44
2021/01/10 06:44:05;;;;;;;9.02;5.15;;;;;;;2.08;80.38;93549.72;5113856;28;20035;-43
2021/01/10 06:46:32;;;;;;;4.50;2.65;;;;;;;1.91;79.58;93542.72;5113900;28;20053;-44
2021/01/10 06:48:57;;;;;;;4.15;3.22;;;;;;;2.04;79.30;93553.91;5113856;28;20023;-45
2021/01/10 06:51:24;;;;;;;4.55;3.20;;;;;;;2.11;79.61;93548.00;5113889;28;20023;-44
2021/01/10 06:53:50;;;;;;;5.22;3.80;;;;;;;2.18;79.27;93561.88;5113765;28;20015;-45
2021/01/10 06:56:16;;;;;;;19.73;7.55;;;;;;;2.27;80.00;93577.25;5113712;27;20488;-46
2021/01/10 06:59:05;;;;;;;16.33;6.72;;;;;;;2.28;79.08;93592.34;5113979;28;20072;-45
2021/01/10 07:01:51;;;;;;;26.95;10.57;;;;;;;2.36;78.79;93595.34;5113477;28;20024;-44
2021/01/10 07:04:21;;;;;;;21.90;10.63;;;;;;;2.32;78.22;93573.06;5106455;28;20187;-44
2021/01/10 07:06:51;;;;;;;7.00;3.58;;;;;;;2.40;78.03;93561.19;5113486;28;20027;-44
2021/01/10 07:09:18;;;;;;;2.22;1.85;;;;;;;2.50;78.05;93570.59;5113522;27;20031;-44
2021/01/10 07:11:45;;;;;;;6.50;4.13;;;;;;;2.27;77.98;93566.38;5113214;28;20086;-43
2021/01/10 07:14:13;;;;;;;8.38;5.70;;;;;;;2.25;78.25;93577.00;5097147;28;20070;-42
2021/01/10 07:16:45;;;;;;;1.27;1.17;;;;;;;2.47;77.29;93570.88;5092958;28;20122;-43
2021/01/10 07:19:14;;;;;;;1.48;1.35;;;;;;;2.56;77.49;93584.97;5092868;28;20047;-44
2021/01/10 07:21:41;;;;;;;;;;;;;;;2.51;77.29;93593.91;5093216;28;20027;-43
2021/01/10 07:24:12;;;;;;;9.60;5.78;;;;;;;2.41;77.94;93608.22;5091887;28;19912;-42
2021/01/10 07:26:47;;;;;;;2.38;2.10;;;;;;;2.47;76.86;93617.19;5092733;28;20028;-44
2021/01/10 07:29:34;;;;;;;11.13;4.80;;;;;;;2.52;76.90;93614.47;5092581;28;20028;-42
2021/01/10 07:32:04;;;;;;;5.25;2.72;;;;;;;2.08;77.99;93608.91;5092709;28;20036;-45
2021/01/10 07:34:29;;;;;;;;;;;;;;;2.18;78.66;93613.66;5093147;28;20027;-43
2021/01/10 07:36:57;;;;;;;5.70;3.80;;;;;;;2.03;78.75;93620.50;5092540;28;19964;-43
2021/01/10 07:39:28;;;;;;;21.42;13.57;;;;;;;2.14;79.11;93610.38;5092544;28;20075;-43
2021/01/10 07:42:14;;;;;;;5.18;3.58;;;;;;;2.27;78.98;93601.78;5092267;28;20501;-43
2021/01/10 07:44:55;;;;;;;5.75;3.95;;;;;;;2.33;78.89;93602.53;5092446;28;20036;-43
2021/01/10 07:47:33;;;;;;;8.65;4.85;;;;;;;2.46;78.97;93593.88;5092484;28;20039;-42
2021/01/10 07:50:10;;;;;;;6.15;3.15;;;;;;;2.53;78.97;93593.41;5092239;28;20095;-44
2021/01/10 07:52:58;;;;;;;4.18;2.33;;;;;;;2.50;78.02;93599.84;5092314;28;20032;-42
2021/01/10 07:55:25;;;;;;;5.78;3.13;;;;;;;2.54;78.36;93586.69;5092665;28;20089;-44
2021/01/10 07:57:55;;;;;;;3.90;2.67;;;;;;;2.60;77.68;93590.94;5092206;28;20035;-43
2021/01/10 08:00:20;;;;;;;2.28;2.00;;;;;;;2.66;76.77;93596.41;5102970;28;20035;-46
2021/01/10 08:02:55;;;;;;;2.05;1.35;;;;;;;2.51;76.65;93596.63;5112309;28;20031;-46
2021/01/10 08:05:41;;;;;;;4.97;2.72;;;;;;;2.36;77.29;93595.34;5112323;28;20492;-45
2021/01/10 08:08:29;;;;;;;4.00;1.35;;;;;;;2.22;77.83;93595.06;5110840;28;20031;-45
2021/01/10 08:10:56;;;;;;;1.23;1.13;;;;;;;2.09;78.49;93578.44;5101039;28;20099;-44
2021/01/10 08:13:40;;;;;;;1.63;1.17;;;;;;;2.27;77.67;93574.53;5111788;28;20032;-43
2021/01/10 08:16:32;;;;;;;2.75;1.10;;;;;;;2.22;77.71;93586.16;5111755;28;20035;-44
2021/01/10 08:19:02;;;;;;;1.23;1.10;;;;;;;2.18;77.89;93591.84;5112097;27;20110;-43
2021/01/10 08:21:28;;;;;;;2.67;1.92;;;;;;;2.26;78.41;93586.66;5111535;28;20035;-45
2021/01/10 08:23:54;;;;;;;3.30;2.08;;;;;;;2.41;79.13;93586.44;5112002;28;20035;-46
2021/01/10 08:26:20;;;;;;;5.40;2.00;;;;;;;2.50;78.62;93586.97;5112306;28;20492;-44
2021/01/10 08:28:49;;;;;;;2.55;1.27;;;;;;;2.44;78.36;93596.34;5111906;28;20528;-45
2021/01/10 08:31:17;;;;;;;3.63;1.33;;;;;;;2.42;77.76;93602.31;5102076;28;20401;-48
2021/01/10 08:33:43;;;;;;;3.50;2.65;;;;;;;2.56;78.24;93595.13;5111787;27;20062;-46
2021/01/10 08:36:13;;;;;;;12.98;5.63;;;;;;;2.78;77.66;93598.63;5111747;28;20034;-47
2021/01/10 08:38:50;;;;;;;4.38;3.63;;;;;;;2.87;76.56;93597.66;5111718;28;20499;-46
2021/01/10 08:41:22;;;;;;;1.33;0.90;;;;;;;2.96;75.99;93605.59;5101481;28;20867;-44
2021/01/10 08:43:56;;;;;;;1.10;1.02;;;;;;;3.02;75.17;93595.41;5091382;28;20062;-48
2021/01/10 08:46:23;;;;;;;4.55;2.78;;;;;;;3.01;75.39;93605.56;5090253;28;20470;-46
2021/01/10 08:48:48;;;;;;;6.18;4.07;;;;;;;3.04;74.98;93599.13;5088823;28;20032;-44
2021/01/10 08:51:36;;;;;;;3.75;2.90;;;;;;;2.97;75.94;93594.19;5090052;28;20504;-42
2021/01/10 08:54:09;;;;;;;2.72;1.52;;;;;;;3.07;75.18;93592.69;5090053;28;20493;-41
2021/01/10 08:56:35;;;;;;;1.77;1.58;;;;;;;3.12;74.58;93595.91;5090021;28;20074;-43
2021/01/10 08:59:01;;;;;;;1.27;1.10;;;;;;;2.99;74.78;93591.69;5089875;28;20546;-42
2021/01/10 09:01:27;;;;;;;1.73;0.80;;;;;;;2.90;75.48;93600.13;5105539;28;20041;-43
2021/01/10 09:04:06;;;;;;;1.75;1.35;;;;;;;2.76;76.15;93616.72;5110537;28;20031;-43
2021/01/10 09:06:38;;;;;;;7.88;4.32;;;;;;;2.75;76.53;93612.53;5110264;28;20032;-42
2021/01/10 09:09:06;;;;;;;2.75;2.38;;;;;;;2.73;76.84;93606.81;5110122;28;20088;-43
2021/01/10 09:11:32;;;;;;;1.50;1.40;;;;;;;2.80;76.02;93606.31;5108584;28;20486;-42
2021/01/10 09:14:00;;;;;;;1.85;1.10;;;;;;;2.81;76.29;93603.13;5110042;28;20055;-43
2021/01/10 09:16:29;;;;;;;2.55;1.88;;;;;;;2.61;77.06;93613.47;5104219;28;20031;-44
2021/01/10 09:18:56;;;;;;;2.38;1.25;;;;;;;2.70;77.13;93619.44;5108843;28;20031;-42
2021/01/10 09:21:28;;;;;;;3.03;2.13;;;;;;;2.61;77.57;93621.66;5110160;28;20035;-42
2021/01/10 09:23:56;;;;;;;2.55;1.55;;;;;;;2.46;77.16;93610.97;5110157;28;20024;-41
2021/01/10 09:26:30;;;;;;;0.80;0.80;;;;;;;2.41;78.32;93608.97;5109639;28;20035;-41
2021/01/10 09:28:56;;;;;;;2.25;1.10;;;;;;;2.49;78.19;93593.63;5109775;28;20060;-44
2021/01/10 09:31:47;;;;;;;3.47;1.92;;;;;;;2.44;78.24;93588.94;5097378;28;20036;-43
2021/01/10 09:34:13;;;;;;;2.47;1.42;;;;;;;2.59;77.54;93588.69;5089746;28;20058;-45
2021/01/10 09:36:39;;;;;;;2.72;2.17;;;;;;;2.63;77.66;93591.94;5089691;28;20028;-44
2021/01/10 09:39:06;;;;;;;1.17;1.00;;;;;;;2.64;78.01;93593.44;5096536;28;20035;-42
2021/01/10 09:41:32;;;;;;;1.65;1.15;;;;;;;2.66;77.70;93599.13;5095867;28;20032;-43
2021/01/10 09:43:58;;;;;;;3.65;2.45;;;;;;;2.68;78.17;93602.84;5087011;28;20035;-44
2021/01/10 09:46:35;;;;;;;4.60;2.90;;;;;;;2.84;78.29;93598.63;5090221;28;20020;-43
2021/01/10 09:49:02;;;;;;;5.68;3.20;;;;;;;2.83;78.03;93586.25;5093829;28;20785;-42
2021/01/10 09:51:41;;;;;;;2.13;1.90;;;;;;;2.73;77.87;93569.38;5098073;28;20424;-42
2021/01/10 09:54:22;;;;;;;5.45;1.88;;;;;;;2.65;77.70;93575.81;5096283;28;20102;-48
2021/01/10 09:56:50;;;;;;;1.58;1.00;;;;;;;2.68;77.68;93542.88;5093296;28;20057;-45
2021/01/10 09:59:34;;;;;;;3.70;2.55;;;;;;;2.66;77.96;93552.78;5093396;28;20035;-45
2021/01/10 10:02:06;;;;;;;5.85;3.75;;;;;;;2.54;78.84;93549.31;5093154;28;20028;-41
2021/01/10 10:04:31;;;;;;;1.17;1.08;;;;;;;2.68;78.07;93561.97;5093670;28;20503;-41
2021/01/10 10:06:57;;;;;;;4.05;2.28;;;;;;;2.74;77.90;93559.22;5093221;28;20063;-43
2021/01/10 10:09:22;;;;;;;5.60;2.88;;;;;;;2.75;78.21;93558.00;5094244;28;20088;-40
2021/01/10 10:11:50;;;;;;;3.17;2.03;;;;;;;2.78;77.95;93567.91;5098071;28;20492;-42
2021/01/10 10:14:16;;;;;;;6.70;3.05;;;;;;;2.88;77.73;93556.25;5103748;28;20024;-44
2021/01/10 10:16:42;;;;;;;6.70;4.15;;;;;;;2.95;77.09;93542.13;5098296;28;20115;-40
2021/01/10 10:19:10;;;;;;;5.45;2.65;;;;;;;2.97;77.28;93549.78;5093031;28;20024;-43
2021/01/10 10:21:47;;;;;;;10.73;2.13;;;;;;;2.97;77.78;93542.34;5092939;28;20079;-41
2021/01/10 10:24:15;;;;;;;13.77;5.47;;;;;;;2.94;77.96;93529.00;5091757;28;20452;-42
2021/01/10 10:26:44;;;;;;;29.40;13.95;;;;;;;2.84;77.32;93525.00;5092643;28;20427;-40
2021/01/10 10:29:09;;;;;;;2.60;2.17;;;;;;;2.73;78.25;93512.13;5092668;28;20538;-41
2021/01/10 10:31:35;;;;;;;7.35;4.03;;;;;;;2.77;78.66;93522.81;5093381;28;20028;-41
2021/01/10 10:34:00;;;;;;;1.80;1.50;;;;;;;2.80;78.04;93503.47;5092516;28;20074;-40
2021/01/10 10:36:26;;;;;;;2.30;1.45;;;;;;;2.87;77.99;93511.16;5105674;28;20033;-40
2021/01/10 10:38:51;;;;;;;14.15;7.70;;;;;;;3.08;77.07;93495.97;5112405;28;20019;-41
2021/01/10 10:41:17;;;;;;;2.72;2.28;;;;;;;3.05;76.80;93494.25;5112493;28;20079;-41
2021/01/10 10:43:42;;;;;;;5.03;3.00;;;;;;;3.05;77.26;93491.50;5111825;28;20016;-41
2021/01/10 10:46:07;;;;;;;2.47;1.73;;;;;;;3.07;77.55;93483.56;5111667;28;20404;-42
2021/01/10 10:48:33;;;;;;;7.60;3.92;;;;;;;3.14;77.42;93481.59;5113281;28;20399;-42
2021/01/10 10:50:58;;;;;;;5.88;2.50;;;;;;;3.12;77.73;93487.53;5112896;27;20023;-42
2021/01/10 10:53:24;;;;;;;9.15;3.95;;;;;;;2.97;77.83;93487.81;5112672;28;20035;-41
2021/01/10 10:55:50;;;;;;;2.95;2.10;;;;;;;2.77;78.08;93479.91;5113032;28;20517;-43
2021/01/10 10:58:15;;;;;;;1.52;1.30;;;;;;;2.87;78.42;93483.13;5111540;28;20046;-43
2021/01/10 11:00:41;;;;;;;6.00;3.90;;;;;;;3.00;77.26;93489.56;5109469;28;20413;-46
2021/01/10 11:03:06;;;;;;;1.50;1.00;;;;;;;2.92;77.77;93487.84;5112252;28;20060;-46
2021/01/10 11:05:32;;;;;;;3.10;1.38;;;;;;;2.92;78.30;93502.19;5112790;28;20047;-47
2021/01/10 11:07:57;;;;;;;2.65;2.00;;;;;;;2.87;77.85;93502.97;5110118;28;20082;-43
2021/01/10 11:10:23;;;;;;;7.03;4.35;;;;;;;3.02;77.23;93494.50;5092608;28;20109;-45
2021/01/10 11:12:48;;;;;;;2.90;1.95;;;;;;;3.01;77.13;93507.41;5093013;28;20093;-41
2021/01/10 11:15:14;;;;;;;1.75;1.45;;;;;;;2.91;78.17;93508.91;5093066;28;20028;-37
2021/01/10 11:17:39;;;;;;;3.65;2.20;;;;;;;3.01;77.77;93510.13;5106653;28;20051;-37
2021/01/10 11:20:06;;;;;;;12.65;7.25;;;;;;;2.90;78.25;93510.13;5108356;28;20428;-38
2021/01/10 11:22:35;;;;;;;4.65;2.20;;;;;;;2.76;78.44;93519.31;5108560;28;20401;-38
2021/01/10 11:25:04;;;;;;;3.38;2.50;;;;;;;2.87;78.70;93519.31;5109581;28;20427;-38
2021/01/10 11:27:30;;;;;;;2.65;1.83;;;;;;;2.88;77.88;93514.63;5107974;28;20428;-38
2021/01/10 11:29:55;;;;;;;1.15;1.05;;;;;;;2.95;77.72;93497.72;5108513;28;20038;-38
2021/01/10 11:32:21;;;;;;;2.35;1.67;;;;;;;3.12;76.70;93509.34;5109259;28;20416;-39
2021/01/10 11:34:46;;;;;;;0.77;0.77;;;;;;;3.02;77.48;93514.34;5110893;28;20032;-38
2021/01/10 11:37:12;;;;;;;2.70;1.45;;;;;;;2.92;77.51;93504.91;5113033;28;20020;-38
2021/01/10 11:39:37;;;;;;;3.92;2.08;;;;;;;2.81;78.10;93504.22;5113063;27;20465;-38
2021/01/10 11:42:05;;;;;;;1.88;1.17;;;;;;;2.70;77.93;93496.78;5112747;28;20026;-38
2021/01/10 11:44:30;;;;;;;2.60;1.58;;;;;;;2.87;78.42;93502.22;5112989;28;20066;-38
2021/01/10 11:46:59;;;;;;;1.73;1.58;;;;;;;2.72;78.55;93485.38;5112931;28;20055;-38